sensor_id;sensor_type;location;lat;lon;timestamp;pressure;altitude;pressure_sealevel;temperature;humidity
82476;BME280;72099;43.176;76.872;2023-10-31T00:01:00;89686.75;;;13.18;50.39
82476;BME280;72099;43.176;76.872;2023-10-31T00:04:01;89693.81;;;13.10;50.05
82476;BME280;72099;43.176;76.872;2023-10-31T00:07:02;89675.13;;;12.92;50.30
82476;BME280;72099;43.176;76.872;2023-10-31T00:10:03;89685.75;;;12.99;50.28
82476;BME280;72099;43.176;76.872;2023-10-31T00:13:04;89670.47;;;12.82;50.34
82476;BME280;72099;43.176;76.872;2023-10-31T00:16:05;89697.00;;;12.93;50.75
82476;BME280;72099;43.176;76.872;2023-10-31T00:19:06;89691.63;;;12.86;50.37
82476;BME280;72099;43.176;76.872;2023-10-31T00:22:07;89680.91;;;12.75;50.65
82476;BME280;72099;43.176;76.872;2023-10-31T00:25:08;89693.69;;;12.73;51.34
82476;BME280;72099;43.176;76.872;2023-10-31T00:28:09;89698.06;;;12.88;52.40
82476;BME280;72099;43.176;76.872;2023-10-31T00:31:10;89694.81;;;12.98;52.43
82476;BME280;72099;43.176;76.872;2023-10-31T00:34:12;89670.75;;;13.04;52.94
82476;BME280;72099;43.176;76.872;2023-10-31T00:37:12;89700.06;;;13.25;53.10
82476;BME280;72099;43.176;76.872;2023-10-31T00:40:14;89682.28;;;13.18;52.58
82476;BME280;72099;43.176;76.872;2023-10-31T00:43:17;89676.06;;;13.07;52.59
82476;BME280;72099;43.176;76.872;2023-10-31T00:46:18;89695.88;;;13.20;53.13
82476;BME280;72099;43.176;76.872;2023-10-31T00:49:18;89693.59;;;13.19;52.73
82476;BME280;72099;43.176;76.872;2023-10-31T00:52:20;89700.44;;;13.23;52.46
82476;BME280;72099;43.176;76.872;2023-10-31T00:55:20;89679.91;;;13.13;52.41
82476;BME280;72099;43.176;76.872;2023-10-31T00:58:21;89669.69;;;13.12;52.36
82476;BME280;72099;43.176;76.872;2023-10-31T01:01:22;89683.72;;;13.16;52.14
82476;BME280;72099;43.176;76.872;2023-10-31T01:04:23;89664.66;;;12.99;52.46
82476;BME280;72099;43.176;76.872;2023-10-31T01:07:27;89684.38;;;13.09;52.42
82476;BME280;72099;43.176;76.872;2023-10-31T01:10:32;89698.44;;;13.17;53.07
82476;BME280;72099;43.176;76.872;2023-10-31T01:13:33;89686.59;;;13.04;52.98
82476;BME280;72099;43.176;76.872;2023-10-31T01:16:34;89679.28;;;12.93;53.41
82476;BME280;72099;43.176;76.872;2023-10-31T01:19:35;89680.47;;;12.99;53.65
82476;BME280;72099;43.176;76.872;2023-10-31T01:22:39;89698.38;;;13.13;53.82
82476;BME280;72099;43.176;76.872;2023-10-31T01:25:40;89687.81;;;13.13;53.59
82476;BME280;72099;43.176;76.872;2023-10-31T01:28:41;89697.31;;;13.18;53.49
82476;BME280;72099;43.176;76.872;2023-10-31T01:31:41;89674.25;;;13.15;53.44
82476;BME280;72099;43.176;76.872;2023-10-31T01:34:43;89686.06;;;13.21;53.52
82476;BME280;72099;43.176;76.872;2023-10-31T01:37:44;89656.03;;;13.03;53.04
82476;BME280;72099;43.176;76.872;2023-10-31T01:44:30;89673.44;;;13.37;53.25
82476;BME280;72099;43.176;76.872;2023-10-31T01:47:34;89676.63;;;13.53;52.42
82476;BME280;72099;43.176;76.872;2023-10-31T01:50:35;89652.50;;;13.55;51.76
82476;BME280;72099;43.176;76.872;2023-10-31T01:53:36;89671.28;;;13.83;50.93
82476;BME280;72099;43.176;76.872;2023-10-31T01:56:38;89656.56;;;13.86;50.26
82476;BME280;72099;43.176;76.872;2023-10-31T01:59:39;89644.91;;;13.91;48.70
82476;BME280;72099;43.176;76.872;2023-10-31T02:02:41;89659.84;;;14.13;48.31
82476;BME280;72099;43.176;76.872;2023-10-31T02:05:45;89649.25;;;14.13;47.44
82476;BME280;72099;43.176;76.872;2023-10-31T02:08:47;89678.09;;;14.29;47.39
82476;BME280;72099;43.176;76.872;2023-10-31T02:11:48;89666.72;;;14.21;46.88
82476;BME280;72099;43.176;76.872;2023-10-31T02:14:49;89691.41;;;14.36;46.72
82476;BME280;72099;43.176;76.872;2023-10-31T02:17:50;89707.31;;;14.43;46.23
82476;BME280;72099;43.176;76.872;2023-10-31T02:20:51;89724.16;;;14.61;45.16
82476;BME280;72099;43.176;76.872;2023-10-31T02:24:10;89724.56;;;14.70;44.91
82476;BME280;72099;43.176;76.872;2023-10-31T02:27:11;89726.47;;;14.70;45.08
82476;BME280;72099;43.176;76.872;2023-10-31T02:30:12;89744.72;;;14.82;45.80
82476;BME280;72099;43.176;76.872;2023-10-31T02:33:13;89762.91;;;14.87;45.18
82476;BME280;72099;43.176;76.872;2023-10-31T02:36:14;89780.00;;;14.97;44.29
82476;BME280;72099;43.176;76.872;2023-10-31T02:39:15;89784.69;;;15.18;43.56
82476;BME280;72099;43.176;76.872;2023-10-31T02:42:16;89784.84;;;15.43;42.54
82476;BME280;72099;43.176;76.872;2023-10-31T02:45:17;89771.22;;;15.44;42.77
82476;BME280;72099;43.176;76.872;2023-10-31T02:48:18;89802.44;;;15.65;43.75
82476;BME280;72099;43.176;76.872;2023-10-31T02:51:18;89791.81;;;15.65;44.44
82476;BME280;72099;43.176;76.872;2023-10-31T02:54:19;89788.44;;;15.68;44.80
82476;BME280;72099;43.176;76.872;2023-10-31T02:57:20;89810.84;;;15.78;45.18
82476;BME280;72099;43.176;76.872;2023-10-31T03:04:03;89852.81;;;15.69;46.37
82476;BME280;72099;43.176;76.872;2023-10-31T03:07:04;89850.50;;;15.60;45.19
82476;BME280;72099;43.176;76.872;2023-10-31T03:10:05;89905.94;;;15.79;43.97
82476;BME280;72099;43.176;76.872;2023-10-31T03:13:06;89889.53;;;15.63;43.68
82476;BME280;72099;43.176;76.872;2023-10-31T03:16:07;89931.69;;;15.79;43.71
82476;BME280;72099;43.176;76.872;2023-10-31T03:19:08;89942.28;;;15.79;43.78
82476;BME280;72099;43.176;76.872;2023-10-31T03:22:09;89954.34;;;15.73;43.27
82476;BME280;72099;43.176;76.872;2023-10-31T03:25:10;89960.41;;;15.70;43.83
82476;BME280;72099;43.176;76.872;2023-10-31T03:28:19;89965.97;;;15.57;43.93
82476;BME280;72099;43.176;76.872;2023-10-31T03:34:59;89994.41;;;15.60;44.22
82476;BME280;72099;43.176;76.872;2023-10-31T03:38:00;90001.22;;;15.61;44.46
82476;BME280;72099;43.176;76.872;2023-10-31T03:41:03;90004.09;;;15.46;45.05
82476;BME280;72099;43.176;76.872;2023-10-31T03:44:04;90051.69;;;15.69;45.19
82476;BME280;72099;43.176;76.872;2023-10-31T03:47:08;90064.88;;;15.61;45.82
82476;BME280;72099;43.176;76.872;2023-10-31T03:50:09;90077.28;;;15.54;46.21
82476;BME280;72099;43.176;76.872;2023-10-31T03:53:13;90062.25;;;15.31;46.72
82476;BME280;72099;43.176;76.872;2023-10-31T03:56:14;90065.78;;;15.09;47.49
82476;BME280;72099;43.176;76.872;2023-10-31T03:59:15;90095.69;;;15.10;48.56
82476;BME280;72099;43.176;76.872;2023-10-31T04:02:16;90101.78;;;14.80;49.41
82476;BME280;72099;43.176;76.872;2023-10-31T04:05:17;90101.44;;;14.55;50.80
82476;BME280;72099;43.176;76.872;2023-10-31T04:08:18;90106.69;;;14.29;51.64
82476;BME280;72099;43.176;76.872;2023-10-31T04:11:55;90124.22;;;14.14;53.33
82476;BME280;72099;43.176;76.872;2023-10-31T04:14:56;90138.69;;;13.97;53.67
82476;BME280;72099;43.176;76.872;2023-10-31T04:17:56;90098.75;;;13.37;55.20
82476;BME280;72099;43.176;76.872;2023-10-31T04:20:57;90149.59;;;13.15;57.00
82476;BME280;72099;43.176;76.872;2023-10-31T04:23:58;90155.47;;;12.69;58.84
82476;BME280;72099;43.176;76.872;2023-10-31T04:26:59;90162.41;;;12.43;60.21
82476;BME280;72099;43.176;76.872;2023-10-31T04:29:59;90169.72;;;12.18;61.40
82476;BME280;72099;43.176;76.872;2023-10-31T04:33:00;90179.09;;;11.99;62.30
82476;BME280;72099;43.176;76.872;2023-10-31T04:36:01;90184.78;;;11.86;62.78
82476;BME280;72099;43.176;76.872;2023-10-31T04:39:02;90189.56;;;11.68;64.08
82476;BME280;72099;43.176;76.872;2023-10-31T04:42:06;90179.19;;;11.31;64.62
82476;BME280;72099;43.176;76.872;2023-10-31T04:45:07;90193.31;;;11.11;65.52
82476;BME280;72099;43.176;76.872;2023-10-31T04:48:08;90210.00;;;10.90;66.07
82476;BME280;72099;43.176;76.872;2023-10-31T04:51:09;90206.88;;;10.60;67.04
82476;BME280;72099;43.176;76.872;2023-10-31T04:54:10;90212.81;;;10.33;67.46
82476;BME280;72099;43.176;76.872;2023-10-31T04:57:10;90239.88;;;10.33;67.79
82476;BME280;72099;43.176;76.872;2023-10-31T05:00:12;90241.69;;;10.21;68.07
82476;BME280;72099;43.176;76.872;2023-10-31T05:03:12;90244.97;;;10.05;68.74
82476;BME280;72099;43.176;76.872;2023-10-31T05:06:13;90266.41;;;9.95;69.51
82476;BME280;72099;43.176;76.872;2023-10-31T05:09:14;90264.13;;;10.06;69.09
82476;BME280;72099;43.176;76.872;2023-10-31T05:12:15;90282.09;;;10.16;69.09
82476;BME280;72099;43.176;76.872;2023-10-31T05:15:16;90288.53;;;10.07;69.42
82476;BME280;72099;43.176;76.872;2023-10-31T05:18:17;90287.50;;;9.87;68.92
82476;BME280;72099;43.176;76.872;2023-10-31T05:25:01;90308.22;;;9.67;69.57
82476;BME280;72099;43.176;76.872;2023-10-31T05:28:03;90313.47;;;9.67;69.89
82476;BME280;72099;43.176;76.872;2023-10-31T05:31:04;90324.81;;;9.59;70.24
82476;BME280;72099;43.176;76.872;2023-10-31T05:34:05;90329.03;;;9.31;71.71
82476;BME280;72099;43.176;76.872;2023-10-31T05:37:07;90346.22;;;9.28;71.20
82476;BME280;72099;43.176;76.872;2023-10-31T05:40:08;90352.88;;;9.26;71.85
82476;BME280;72099;43.176;76.872;2023-10-31T05:43:09;90361.84;;;9.25;72.34
82476;BME280;72099;43.176;76.872;2023-10-31T05:46:10;90321.78;;;8.86;72.26
82476;BME280;72099;43.176;76.872;2023-10-31T05:49:11;90374.34;;;8.90;72.56
82476;BME280;72099;43.176;76.872;2023-10-31T05:52:12;90370.63;;;8.61;73.42
82476;BME280;72099;43.176;76.872;2023-10-31T05:55:13;90392.97;;;8.67;74.11
82476;BME280;72099;43.176;76.872;2023-10-31T05:58:14;90398.03;;;8.72;74.09
82476;BME280;72099;43.176;76.872;2023-10-31T06:01:15;90424.34;;;8.93;74.26
82476;BME280;72099;43.176;76.872;2023-10-31T06:04:15;90436.03;;;9.04;74.32
82476;BME280;72099;43.176;76.872;2023-10-31T06:07:16;90443.25;;;9.07;75.21
82476;BME280;72099;43.176;76.872;2023-10-31T06:10:19;90456.50;;;9.11;74.06
82476;BME280;72099;43.176;76.872;2023-10-31T06:13:20;90450.56;;;8.93;74.76
82476;BME280;72099;43.176;76.872;2023-10-31T06:16:22;90474.38;;;8.79;75.24
82476;BME280;72099;43.176;76.872;2023-10-31T06:19:23;90470.97;;;8.79;75.96
82476;BME280;72099;43.176;76.872;2023-10-31T06:22:23;90481.28;;;8.84;75.82
82476;BME280;72099;43.176;76.872;2023-10-31T06:25:24;90508.91;;;8.81;77.29
82476;BME280;72099;43.176;76.872;2023-10-31T06:28:25;90515.56;;;8.88;75.91
82476;BME280;72099;43.176;76.872;2023-10-31T06:35:03;90521.25;;;8.90;76.75
82476;BME280;72099;43.176;76.872;2023-10-31T06:38:04;90534.69;;;8.79;77.25
82476;BME280;72099;43.176;76.872;2023-10-31T06:41:05;90535.00;;;8.78;76.79
82476;BME280;72099;43.176;76.872;2023-10-31T06:44:06;90550.44;;;8.88;76.90
82476;BME280;72099;43.176;76.872;2023-10-31T06:47:06;90556.00;;;8.78;76.38
82476;BME280;72099;43.176;76.872;2023-10-31T06:50:08;90566.00;;;8.84;76.59
82476;BME280;72099;43.176;76.872;2023-10-31T06:53:09;90572.50;;;8.78;77.67
82476;BME280;72099;43.176;76.872;2023-10-31T06:56:10;90564.16;;;8.68;77.03
82476;BME280;72099;43.176;76.872;2023-10-31T06:59:10;90589.31;;;8.69;77.93
82476;BME280;72099;43.176;76.872;2023-10-31T07:02:11;90587.78;;;8.76;78.17
82476;BME280;72099;43.176;76.872;2023-10-31T07:05:12;90595.34;;;8.86;78.06
82476;BME280;72099;43.176;76.872;2023-10-31T07:08:13;90590.69;;;8.83;77.83
82476;BME280;72099;43.176;76.872;2023-10-31T07:11:14;90605.38;;;8.76;77.94
82476;BME280;72099;43.176;76.872;2023-10-31T07:14:15;90610.94;;;8.74;78.64
82476;BME280;72099;43.176;76.872;2023-10-31T07:17:16;90601.19;;;8.66;77.79
82476;BME280;72099;43.176;76.872;2023-10-31T07:20:17;90608.13;;;8.79;78.50
82476;BME280;72099;43.176;76.872;2023-10-31T07:23:17;90617.69;;;8.84;78.63
82476;BME280;72099;43.176;76.872;2023-10-31T07:26:18;90615.84;;;8.76;77.48
82476;BME280;72099;43.176;76.872;2023-10-31T07:29:19;90630.34;;;8.91;78.35
82476;BME280;72099;43.176;76.872;2023-10-31T07:32:20;90626.97;;;8.99;77.00
82476;BME280;72099;43.176;76.872;2023-10-31T07:35:20;90626.63;;;8.92;76.86
82476;BME280;72099;43.176;76.872;2023-10-31T07:38:21;90636.22;;;8.88;77.57
82476;BME280;72099;43.176;76.872;2023-10-31T07:41:22;90617.69;;;8.84;76.80
82476;BME280;72099;43.176;76.872;2023-10-31T07:44:22;90632.50;;;8.97;77.48
82476;BME280;72099;43.176;76.872;2023-10-31T07:47:23;90646.88;;;9.00;76.41
82476;BME280;72099;43.176;76.872;2023-10-31T07:50:24;90630.81;;;9.01;76.75
82476;BME280;72099;43.176;76.872;2023-10-31T07:53:24;90644.84;;;8.97;76.66
82476;BME280;72099;43.176;76.872;2023-10-31T07:56:26;90641.47;;;8.79;76.83
82476;BME280;72099;43.176;76.872;2023-10-31T07:59:26;90649.31;;;8.70;76.69
82476;BME280;72099;43.176;76.872;2023-10-31T08:02:27;90653.94;;;8.65;77.24
82476;BME280;72099;43.176;76.872;2023-10-31T08:05:28;90654.72;;;8.48;78.72
82476;BME280;72099;43.176;76.872;2023-10-31T08:08:29;90640.50;;;8.40;78.59
82476;BME280;72099;43.176;76.872;2023-10-31T08:11:29;90650.25;;;8.48;78.42
82476;BME280;72099;43.176;76.872;2023-10-31T08:14:30;90658.88;;;8.49;78.84
82476;BME280;72099;43.176;76.872;2023-10-31T08:17:31;90650.69;;;8.59;79.37
82476;BME280;72099;43.176;76.872;2023-10-31T08:20:32;90656.88;;;8.80;78.69
82476;BME280;72099;43.176;76.872;2023-10-31T08:23:34;90656.72;;;8.68;77.43
82476;BME280;72099;43.176;76.872;2023-10-31T08:26:35;90664.13;;;8.49;77.60
82476;BME280;72099;43.176;76.872;2023-10-31T08:29:36;90660.84;;;8.35;77.82
82476;BME280;72099;43.176;76.872;2023-10-31T08:32:37;90681.25;;;8.46;79.03
82476;BME280;72099;43.176;76.872;2023-10-31T08:35:38;90679.25;;;8.61;78.62
82476;BME280;72099;43.176;76.872;2023-10-31T08:38:38;90695.59;;;8.83;77.95
82476;BME280;72099;43.176;76.872;2023-10-31T08:41:52;90706.13;;;8.92;77.89
82476;BME280;72099;43.176;76.872;2023-10-31T08:44:53;90704.09;;;9.06;77.33
82476;BME280;72099;43.176;76.872;2023-10-31T08:47:54;90714.75;;;8.93;76.79
82476;BME280;72099;43.176;76.872;2023-10-31T08:50:58;90713.19;;;8.66;77.99
82476;BME280;72099;43.176;76.872;2023-10-31T08:53:59;90728.44;;;8.72;79.37
82476;BME280;72099;43.176;76.872;2023-10-31T08:56:59;90724.94;;;8.94;78.60
82476;BME280;72099;43.176;76.872;2023-10-31T09:00:00;90721.53;;;8.94;78.28
82476;BME280;72099;43.176;76.872;2023-10-31T09:03:01;90705.94;;;8.63;78.10
82476;BME280;72099;43.176;76.872;2023-10-31T09:06:02;90731.50;;;8.57;79.24
82476;BME280;72099;43.176;76.872;2023-10-31T09:09:02;90692.94;;;8.40;79.31
82476;BME280;72099;43.176;76.872;2023-10-31T09:12:04;90683.53;;;8.39;79.00
82476;BME280;72099;43.176;76.872;2023-10-31T09:15:05;90704.91;;;8.33;79.02
82476;BME280;72099;43.176;76.872;2023-10-31T09:18:06;90691.63;;;8.29;79.29
82476;BME280;72099;43.176;76.872;2023-10-31T09:21:10;90681.06;;;8.34;79.33
82476;BME280;72099;43.176;76.872;2023-10-31T09:24:11;90671.81;;;8.45;78.69
82476;BME280;72099;43.176;76.872;2023-10-31T09:27:11;90666.91;;;8.52;79.28
82476;BME280;72099;43.176;76.872;2023-10-31T09:30:12;90643.75;;;8.46;78.25
82476;BME280;72099;43.176;76.872;2023-10-31T09:33:13;90644.97;;;8.40;78.63
82476;BME280;72099;43.176;76.872;2023-10-31T09:36:14;90600.81;;;8.16;78.34
82476;BME280;72099;43.176;76.872;2023-10-31T09:39:15;90622.41;;;8.30;77.77
82476;BME280;72099;43.176;76.872;2023-10-31T09:42:16;90616.06;;;8.14;77.91
82476;BME280;72099;43.176;76.872;2023-10-31T09:45:17;90619.75;;;8.04;77.99
82476;BME280;72099;43.176;76.872;2023-10-31T09:48:21;90603.91;;;8.09;78.64
82476;BME280;72099;43.176;76.872;2023-10-31T09:51:22;90595.44;;;8.29;78.53
82476;BME280;72099;43.176;76.872;2023-10-31T09:54:23;90574.22;;;8.40;77.92
82476;BME280;72099;43.176;76.872;2023-10-31T09:57:25;90563.13;;;8.34;77.57
82476;BME280;72099;43.176;76.872;2023-10-31T10:00:26;90557.53;;;8.27;77.54
82476;BME280;72099;43.176;76.872;2023-10-31T10:03:28;90496.31;;;7.97;77.70
82476;BME280;72099;43.176;76.872;2023-10-31T10:06:29;90518.38;;;8.13;74.58
82476;BME280;72099;43.176;76.872;2023-10-31T10:09:30;90531.47;;;8.65;73.17
82476;BME280;72099;43.176;76.872;2023-10-31T10:12:32;90498.28;;;8.78;70.48
82476;BME280;72099;43.176;76.872;2023-10-31T10:15:46;90545.28;;;9.47;63.22
82476;BME280;72099;43.176;76.872;2023-10-31T10:18:52;90528.50;;;9.78;63.25
82476;BME280;72099;43.176;76.872;2023-10-31T10:21:55;90532.59;;;9.87;62.79
82476;BME280;72099;43.176;76.872;2023-10-31T10:24:55;90554.91;;;10.02;61.85
82476;BME280;72099;43.176;76.872;2023-10-31T10:27:56;90525.47;;;10.17;59.29
82476;BME280;72099;43.176;76.872;2023-10-31T10:30:57;90530.19;;;10.32;58.03
82476;BME280;72099;43.176;76.872;2023-10-31T10:33:58;90532.66;;;10.50;53.27
82476;BME280;72099;43.176;76.872;2023-10-31T10:36:59;90516.81;;;10.58;55.38
82476;BME280;72099;43.176;76.872;2023-10-31T10:39:59;90525.38;;;10.68;52.83
82476;BME280;72099;43.176;76.872;2023-10-31T10:43:06;90531.69;;;10.75;51.46
82476;BME280;72099;43.176;76.872;2023-10-31T10:46:12;90544.38;;;10.94;52.51
82476;BME280;72099;43.176;76.872;2023-10-31T10:49:19;90499.66;;;10.73;52.80
82476;BME280;72099;43.176;76.872;2023-10-31T10:52:27;90558.34;;;11.07;54.36
82476;BME280;72099;43.176;76.872;2023-10-31T10:55:30;90582.88;;;10.99;55.81
82476;BME280;72099;43.176;76.872;2023-10-31T10:58:38;90585.13;;;10.88;56.47
82476;BME280;72099;43.176;76.872;2023-10-31T11:01:41;90611.31;;;10.84;57.86
82476;BME280;72099;43.176;76.872;2023-10-31T11:04:43;90586.72;;;10.80;58.06
82476;BME280;72099;43.176;76.872;2023-10-31T11:07:44;90606.69;;;10.81;58.61
82476;BME280;72099;43.176;76.872;2023-10-31T11:10:46;90608.25;;;10.82;58.50
82476;BME280;72099;43.176;76.872;2023-10-31T11:13:47;90631.84;;;10.91;58.60
82476;BME280;72099;43.176;76.872;2023-10-31T11:16:52;90654.38;;;11.01;59.06
82476;BME280;72099;43.176;76.872;2023-10-31T11:19:54;90649.00;;;10.97;59.37
82476;BME280;72099;43.176;76.872;2023-10-31T11:22:56;90654.25;;;10.97;59.74
82476;BME280;72099;43.176;76.872;2023-10-31T11:25:58;90667.22;;;10.81;60.91
82476;BME280;72099;43.176;76.872;2023-10-31T11:29:06;90672.13;;;10.62;62.14
82476;BME280;72099;43.176;76.872;2023-10-31T11:32:11;90681.00;;;10.57;61.98
82476;BME280;72099;43.176;76.872;2023-10-31T11:35:12;90678.16;;;10.62;63.21
82476;BME280;72099;43.176;76.872;2023-10-31T11:38:12;90694.41;;;10.64;63.76
82476;BME280;72099;43.176;76.872;2023-10-31T11:41:13;90700.50;;;10.56;63.25
82476;BME280;72099;43.176;76.872;2023-10-31T11:44:14;90698.88;;;10.43;62.48
82476;BME280;72099;43.176;76.872;2023-10-31T11:47:15;90701.34;;;10.40;62.06
82476;BME280;72099;43.176;76.872;2023-10-31T11:50:17;90695.06;;;10.32;61.91
82476;BME280;72099;43.176;76.872;2023-10-31T11:53:20;90718.72;;;10.32;61.67
82476;BME280;72099;43.176;76.872;2023-10-31T11:56:23;90704.50;;;10.24;61.64
82476;BME280;72099;43.176;76.872;2023-10-31T11:59:24;90719.22;;;10.17;61.59
82476;BME280;72099;43.176;76.872;2023-10-31T12:02:24;90729.75;;;10.08;61.51
82476;BME280;72099;43.176;76.872;2023-10-31T12:05:26;90733.03;;;9.96;61.62
82476;BME280;72099;43.176;76.872;2023-10-31T12:08:33;90754.38;;;9.86;61.71
82476;BME280;72099;43.176;76.872;2023-10-31T12:11:44;90734.03;;;9.66;61.37
82476;BME280;72099;43.176;76.872;2023-10-31T12:14:45;90740.97;;;9.62;62.11
82476;BME280;72099;43.176;76.872;2023-10-31T12:17:46;90757.66;;;9.57;62.35
82476;BME280;72099;43.176;76.872;2023-10-31T12:20:48;90764.94;;;9.52;62.63
82476;BME280;72099;43.176;76.872;2023-10-31T12:23:49;90772.97;;;9.46;62.91
82476;BME280;72099;43.176;76.872;2023-10-31T12:26:50;90784.41;;;9.33;63.17
82476;BME280;72099;43.176;76.872;2023-10-31T12:30:01;90773.88;;;9.33;63.99
82476;BME280;72099;43.176;76.872;2023-10-31T12:33:02;90771.13;;;9.38;64.08
82476;BME280;72099;43.176;76.872;2023-10-31T12:36:03;90789.66;;;9.42;64.03
82476;BME280;72099;43.176;76.872;2023-10-31T12:39:05;90787.66;;;9.39;64.49
82476;BME280;72099;43.176;76.872;2023-10-31T12:42:07;90792.28;;;9.42;64.77
82476;BME280;72099;43.176;76.872;2023-10-31T12:45:08;90799.53;;;9.45;65.18
82476;BME280;72099;43.176;76.872;2023-10-31T12:48:10;90798.13;;;9.48;64.96
82476;BME280;72099;43.176;76.872;2023-10-31T12:51:12;90806.19;;;9.42;65.46
82476;BME280;72099;43.176;76.872;2023-10-31T12:54:13;90798.91;;;9.31;66.96
82476;BME280;72099;43.176;76.872;2023-10-31T12:57:27;90809.72;;;9.46;65.81
82476;BME280;72099;43.176;76.872;2023-10-31T13:00:33;90809.72;;;9.46;66.41
82476;BME280;72099;43.176;76.872;2023-10-31T13:03:48;90815.94;;;9.51;66.91
82476;BME280;72099;43.176;76.872;2023-10-31T13:09:56;90819.44;;;9.37;67.54
82476;BME280;72099;43.176;76.872;2023-10-31T13:12:57;90820.69;;;9.31;68.27
82476;BME280;72099;43.176;76.872;2023-10-31T13:15:58;90828.53;;;9.23;68.75
82476;BME280;72099;43.176;76.872;2023-10-31T13:18:59;90819.72;;;9.10;68.81
82476;BME280;72099;43.176;76.872;2023-10-31T13:21:59;90801.94;;;8.98;69.10
82476;BME280;72099;43.176;76.872;2023-10-31T13:25:01;90828.66;;;9.09;68.91
82476;BME280;72099;43.176;76.872;2023-10-31T13:28:05;90837.31;;;9.01;68.93
82476;BME280;72099;43.176;76.872;2023-10-31T13:31:08;90828.91;;;8.81;68.96
82476;BME280;72099;43.176;76.872;2023-10-31T13:34:08;90844.06;;;8.93;70.52
82476;BME280;72099;43.176;76.872;2023-10-31T13:37:09;90834.22;;;8.99;69.54
82476;BME280;72099;43.176;76.872;2023-10-31T13:40:10;90845.38;;;9.13;69.38
82476;BME280;72099;43.176;76.872;2023-10-31T13:43:11;90824.16;;;8.92;69.05
82476;BME280;72099;43.176;76.872;2023-10-31T13:46:12;90814.88;;;8.77;70.78
82476;BME280;72099;43.176;76.872;2023-10-31T13:49:13;90831.88;;;8.97;71.60
82476;BME280;72099;43.176;76.872;2023-10-31T13:52:14;90817.69;;;8.90;71.15
82476;BME280;72099;43.176;76.872;2023-10-31T13:55:16;90800.22;;;8.85;71.22
82476;BME280;72099;43.176;76.872;2023-10-31T13:58:17;90828.47;;;8.79;71.48
82476;BME280;72099;43.176;76.872;2023-10-31T14:01:17;90846.81;;;8.79;71.92
82476;BME280;72099;43.176;76.872;2023-10-31T14:04:20;90841.63;;;8.57;72.14
82476;BME280;72099;43.176;76.872;2023-10-31T14:07:21;90858.13;;;8.57;72.99
82476;BME280;72099;43.176;76.872;2023-10-31T14:10:25;90841.88;;;8.38;72.29
82476;BME280;72099;43.176;76.872;2023-10-31T14:13:27;90878.13;;;8.45;73.03
82476;BME280;72099;43.176;76.872;2023-10-31T14:16:27;90855.38;;;8.32;72.93
82476;BME280;72099;43.176;76.872;2023-10-31T14:19:28;90872.94;;;8.31;73.05
82476;BME280;72099;43.176;76.872;2023-10-31T14:22:29;90869.63;;;8.39;73.71
82476;BME280;72099;43.176;76.872;2023-10-31T14:25:29;90876.00;;;8.47;73.63
82476;BME280;72099;43.176;76.872;2023-10-31T14:28:30;90886.97;;;8.57;73.61
82476;BME280;72099;43.176;76.872;2023-10-31T14:31:49;90884.72;;;8.65;72.40
82476;BME280;72099;43.176;76.872;2023-10-31T14:34:50;90905.44;;;8.75;72.60
82476;BME280;72099;43.176;76.872;2023-10-31T14:37:51;90907.00;;;8.84;73.42
82476;BME280;72099;43.176;76.872;2023-10-31T14:40:51;90914.97;;;9.02;72.61
82476;BME280;72099;43.176;76.872;2023-10-31T14:43:52;90925.63;;;9.05;71.91
82476;BME280;72099;43.176;76.872;2023-10-31T14:46:53;90924.63;;;8.93;71.80
82476;BME280;72099;43.176;76.872;2023-10-31T14:49:54;90931.25;;;8.90;72.18
82476;BME280;72099;43.176;76.872;2023-10-31T14:52:55;90936.13;;;8.74;72.36
82476;BME280;72099;43.176;76.872;2023-10-31T14:55:55;90934.09;;;8.71;73.07
82476;BME280;72099;43.176;76.872;2023-10-31T14:58:56;90930.69;;;8.71;72.84
82476;BME280;72099;43.176;76.872;2023-10-31T15:01:57;90942.28;;;8.70;72.65
82476;BME280;72099;43.176;76.872;2023-10-31T15:04:57;90960.97;;;8.77;73.75
82476;BME280;72099;43.176;76.872;2023-10-31T15:07:58;90941.84;;;8.76;72.95
82476;BME280;72099;43.176;76.872;2023-10-31T15:10:59;90963.22;;;8.92;72.32
82476;BME280;72099;43.176;76.872;2023-10-31T15:14:01;90962.50;;;9.00;72.93
82476;BME280;72099;43.176;76.872;2023-10-31T15:17:02;90950.63;;;9.03;72.39
82476;BME280;72099;43.176;76.872;2023-10-31T15:20:03;90969.97;;;9.15;71.88
82476;BME280;72099;43.176;76.872;2023-10-31T15:23:04;90954.44;;;8.97;72.15
82476;BME280;72099;43.176;76.872;2023-10-31T15:26:05;90970.84;;;9.02;72.86
82476;BME280;72099;43.176;76.872;2023-10-31T15:29:09;90966.75;;;8.88;71.85
82476;BME280;72099;43.176;76.872;2023-10-31T15:32:10;90956.47;;;8.69;72.55
82476;BME280;72099;43.176;76.872;2023-10-31T15:35:11;90953.28;;;8.49;71.97
82476;BME280;72099;43.176;76.872;2023-10-31T15:38:11;90973.81;;;8.56;72.84
82476;BME280;72099;43.176;76.872;2023-10-31T15:41:12;90969.53;;;8.60;72.50
82476;BME280;72099;43.176;76.872;2023-10-31T15:44:13;90984.38;;;8.42;72.26
82476;BME280;72099;43.176;76.872;2023-10-31T15:47:16;90980.09;;;8.33;72.93
82476;BME280;72099;43.176;76.872;2023-10-31T15:50:22;90966.44;;;7.99;72.22
82476;BME280;72099;43.176;76.872;2023-10-31T15:53:23;90971.66;;;7.77;73.83
82476;BME280;72099;43.176;76.872;2023-10-31T15:56:26;90978.63;;;7.82;73.97
82476;BME280;72099;43.176;76.872;2023-10-31T15:59:27;90989.00;;;7.87;73.49
82476;BME280;72099;43.176;76.872;2023-10-31T16:02:27;91002.44;;;7.94;74.41
82476;BME280;72099;43.176;76.872;2023-10-31T16:05:28;91009.63;;;8.02;73.77
82476;BME280;72099;43.176;76.872;2023-10-31T16:08:30;90996.59;;;7.75;73.41
82476;BME280;72099;43.176;76.872;2023-10-31T16:11:31;91006.03;;;7.48;74.26
82476;BME280;72099;43.176;76.872;2023-10-31T16:14:35;91012.22;;;7.38;73.81
82476;BME280;72099;43.176;76.872;2023-10-31T16:17:36;91021.44;;;7.22;73.43